• Join FlightAware (Why Join?)
  • Login
  • US Flag 
07:20AM EDT


 

Airport Tracker/Info


-or-


 

Live Flight TrackerFlight Track Log ✈ EJA941 ✈ 17-Jun-2013 ✈ KSBM - KMKE

Flight Track Log - Related Links

Times and Time Zones

All times are in EDT time to prevent confusion due to time zone crossing. See the EJA941 flight status page for this flight to view local times or setup timezone preferences in your user account.

Time Position Orientation Groundspeed Altitude Reporting Facility
EDT Latitude Longitude Course Direction KTS MPH feet Rate Location/Type
09:32PM 43.7667 -87.8333 170° South 95 109 2,300  Level KMKE
09:33PM 43.7000 -87.8167 170° South 269 310 4,800 2,820 Climbing KMKE
09:34PM 43.6586 -87.7833 150° Southeast 265 305 7,500 2,940 Climbing Chicago Center
09:35PM 43.5875 -87.7375 155° Southeast 277 319 10,000 1,200 Climbing Chicago Center
09:36PM 43.4883 -87.6975 164° South 367 422 10,000  Level Chicago Center
09:37PM 43.3856 -87.6911 177° South 367 422 10,000 -180 Level Chicago Center
09:38PM 43.3053 -87.6972 183° South 293 337 9,700 -720 Descending Chicago Center
09:39PM 43.2358 -87.7008 182° South 257 296 8,500 -840 Descending Chicago Center
09:40PM 43.1578 -87.7069 183° South 243 280 8,000 -300 Descending Chicago Center
09:41PM 43.0894 -87.7292 173° South 247 284 8,000 -540 Level Chicago Center
09:42PM 43.0225 -87.7494 192° South 247 284 7,000 -1,020 Descending Chicago Center
09:43PM 42.9569 -87.7714 194° South 242 278 6,000 -540 Descending Chicago Center
09:44PM 42.8956 -87.7908 193° South 230 265 6,000 -660 Level Chicago Center
09:45PM 42.8411 -87.8069 192° South 207 238 4,700 -1,020 Descending Chicago Center
09:46PM 42.7772 -87.8283 194° South 202 232 4,000 -540 Descending Chicago Center
09:47PM 42.7358 -87.8647 213° Southwest 189 217 3,600 -540 Descending Chicago Center
09:48PM 42.7558 -87.9244 295° West 198 228 3,000 -300 Descending Chicago Center
09:49PM 42.8011 -87.9197 North 172 198 3,000 -240 Level Chicago Center
09:50PM 42.8425 -87.9122 North 154 177 2,500 -720 Descending Chicago Center
09:51PM 42.8883 -87.9053 North 145 167 1,600 -780 Descending Chicago Center
09:52PM 42.9233 -87.8997 North 137 158 1,000 -600 Descending Chicago Center